Time;durP1;ratioP1;P1;durP2;ratioP2;P2;SDS_P1;SDS_P2;PMS_P1;PMS_P2;Temp;Humidity;BMP_temperature;BMP_pressure;BME280_temperature;BME280_humidity;BME280_pressure;Samples;Min_cycle;Max_cycle;Signal;HPM_P1;HPM_P2
2021/05/05 00:02:53;;;;;;;7.30;1.83;;;;;;;;;;5069787;28;20437;-75
2021/05/05 00:08:26;;;;;;;5.95;1.65;;;;;;;;;;5110141;27;20376;-75
2021/05/05 00:10:53;;;;;;;7.03;1.65;;;;;;;;;;5110234;28;20027;-74
2021/05/05 00:14:52;;;;;;;6.03;1.90;;;;;;;;;;5109972;27;20718;-74
2021/05/05 00:19:54;;;;;;;2.50;1.33;;;;;;;;;;5110496;27;20384;-74
2021/05/05 00:22:20;;;;;;;3.75;1.50;;;;;;;;;;5109979;28;20484;-74
2021/05/05 00:28:19;;;;;;;3.70;1.65;;;;;;;;;;5110194;27;20457;-75
2021/05/05 00:33:31;;;;;;;5.28;1.70;;;;;;;;;;5110562;27;20377;-75
2021/05/05 00:36:07;;;;;;;4.45;1.38;;;;;;;;;;5109944;27;20450;-75
2021/05/05 00:38:34;;;;;;;4.55;1.45;;;;;;;;;;5109371;28;20024;-74
2021/05/05 00:42:15;;;;;;;3.53;1.35;;;;;;;;;;5110138;27;20376;-75
2021/05/05 00:44:41;;;;;;;4.93;1.48;;;;;;;;;;5109050;28;20028;-75
2021/05/05 00:47:08;;;;;;;5.10;1.83;;;;;;;;;;5110244;28;20020;-74
2021/05/05 00:49:34;;;;;;;4.97;1.20;;;;;;;;;;5110015;28;20043;-74
2021/05/05 00:52:25;;;;;;;3.85;1.60;;;;;;;;;;5110353;27;20377;-75
2021/05/05 00:54:52;;;;;;;3.67;1.85;;;;;;;;;;5110392;28;20028;-75
2021/05/05 00:57:18;;;;;;;7.90;1.40;;;;;;;;;;5108724;28;20388;-75
2021/05/05 00:59:44;;;;;;;1.48;1.00;;;;;;;;;;5110578;28;20499;-75
2021/05/05 01:03:41;;;;;;;4.80;1.35;;;;;;;;;;5110059;27;20119;-75
2021/05/05 01:08:32;;;;;;;2.55;0.90;;;;;;;;;;5110463;27;20380;-74
2021/05/05 01:10:59;;;;;;;1.75;1.00;;;;;;;;;;5108557;28;20024;-74
2021/05/05 01:13:48;;;;;;;2.60;1.10;;;;;;;;;;5110923;27;20159;-74
2021/05/05 01:16:15;;;;;;;2.33;1.45;;;;;;;;;;5110456;28;20054;-74
2021/05/05 01:18:42;;;;;;;4.38;1.42;;;;;;;;;;5109980;28;20026;-74
2021/05/05 01:21:08;;;;;;;3.35;1.23;;;;;;;;;;5110221;28;20494;-74
2021/05/05 01:23:34;;;;;;;2.38;1.30;;;;;;;;;;5109784;28;20031;-75
2021/05/05 01:26:01;;;;;;;2.13;1.25;;;;;;;;;;5110158;28;20585;-74
2021/05/05 01:28:28;;;;;;;3.53;1.20;;;;;;;;;;5110094;28;20031;-74
2021/05/05 01:36:13;;;;;;;2.40;1.30;;;;;;;;;;5110410;27;20376;-75
2021/05/05 01:41:53;;;;;;;3.20;1.33;;;;;;;;;;5110308;27;20414;-75
2021/05/05 01:45:51;;;;;;;4.40;1.60;;;;;;;;;;5069378;28;20801;-75
2021/05/05 01:48:29;;;;;;;2.80;1.20;;;;;;;;;;5110552;27;20385;-75
2021/05/05 01:52:56;;;;;;;4.93;1.77;;;;;;;;;;5069637;28;20379;-75
2021/05/05 01:55:22;;;;;;;4.88;1.80;;;;;;;;;;5069856;28;20031;-75
2021/05/05 01:57:49;;;;;;;3.90;1.65;;;;;;;;;;5069805;28;20090;-76
2021/05/05 02:01:12;;;;;;;5.95;1.50;;;;;;;;;;5110477;27;20442;-74
2021/05/05 02:04:46;;;;;;;2.53;1.33;;;;;;;;;;5110216;27;20814;-75
2021/05/05 02:07:12;;;;;;;8.02;1.77;;;;;;;;;;5109971;28;20057;-75
2021/05/05 02:09:38;;;;;;;2.38;1.50;;;;;;;;;;5110393;28;20447;-75
2021/05/05 02:12:04;;;;;;;2.42;1.60;;;;;;;;;;5110514;28;20048;-75
2021/05/05 02:16:15;;;;;;;3.78;1.60;;;;;;;;;;5130856;27;20163;-74
2021/05/05 02:18:41;;;;;;;2.88;1.42;;;;;;;;;;5110290;28;20031;-74
2021/05/05 02:21:26;;;;;;;6.13;1.90;;;;;;;;;;5109935;27;20695;-74
2021/05/05 02:27:31;;;;;;;6.45;2.13;;;;;;;;;;5110104;27;20790;-74
2021/05/05 02:29:57;;;;;;;4.13;2.13;;;;;;;;;;5110615;28;20384;-74
2021/05/05 02:32:24;;;;;;;6.07;2.13;;;;;;;;;;5110471;28;20496;-74
2021/05/05 02:35:35;;;;;;;6.82;2.15;;;;;;;;;;5109958;27;20406;-74
2021/05/05 02:38:45;;;;;;;4.03;1.65;;;;;;;;;;5110358;27;20733;-75
2021/05/05 02:43:04;;;;;;;5.97;1.85;;;;;;;;;;5109877;27;20430;-75
2021/05/05 02:45:31;;;;;;;5.65;1.90;;;;;;;;;;5108264;28;20028;-75
2021/05/05 02:47:57;;;;;;;6.32;1.88;;;;;;;;;;5109427;28;20028;-74
2021/05/05 02:50:23;;;;;;;6.53;2.15;;;;;;;;;;5108925;28;20463;-75
2021/05/05 02:57:05;;;;;;;2.60;1.50;;;;;;;;;;5110030;27;20426;-75
2021/05/05 02:59:32;;;;;;;5.07;2.03;;;;;;;;;;5110382;28;20024;-75
2021/05/05 03:01:58;;;;;;;5.97;2.08;;;;;;;;;;5110254;28;20028;-75
2021/05/05 03:04:24;;;;;;;4.00;1.77;;;;;;;;;;5109934;28;20016;-75
2021/05/05 03:06:52;;;;;;;7.78;1.85;;;;;;;;;;5108879;28;20028;-76
2021/05/05 03:09:22;;;;;;;7.78;1.85;;;;;;;;;;5109634;28;20031;-75
2021/05/05 03:11:48;;;;;;;3.40;1.40;;;;;;;;;;5110543;28;20024;-75
2021/05/05 03:14:14;;;;;;;3.03;1.80;;;;;;;;;;5110005;28;20031;-74
2021/05/05 03:16:41;;;;;;;4.63;1.90;;;;;;;;;;5109584;28;20511;-74
2021/05/05 03:19:41;;;;;;;4.03;1.50;;;;;;;;;;5110407;27;20381;-75
2021/05/05 03:22:07;;;;;;;5.22;1.63;;;;;;;;;;5110282;28;20027;-74
2021/05/05 03:24:33;;;;;;;5.60;1.88;;;;;;;;;;5109771;28;20019;-75
2021/05/05 03:28:09;;;;;;;7.00;2.70;;;;;;;;;;5110673;27;20410;-74
2021/05/05 03:33:38;;;;;;;6.30;2.10;;;;;;;;;;5111160;27;20449;-77
2021/05/05 03:37:24;;;;;;;7.03;2.63;;;;;;;;;;5069765;28;20388;-75
2021/05/05 03:39:51;;;;;;;6.82;2.58;;;;;;;;;;5070775;28;20059;-76
2021/05/05 03:43:35;;;;;;;5.97;2.30;;;;;;;;;;5110778;27;20892;-75
2021/05/05 03:46:01;;;;;;;7.32;2.15;;;;;;;;;;5109055;28;20031;-73
2021/05/05 03:48:28;;;;;;;5.75;2.25;;;;;;;;;;5110602;28;20024;-75
2021/05/05 03:52:28;;;;;;;6.63;2.60;;;;;;;;;;5110803;27;20384;-76
2021/05/05 03:54:55;;;;;;;4.43;1.80;;;;;;;;;;5110680;28;20024;-76
2021/05/05 03:57:21;;;;;;;4.03;2.05;;;;;;;;;;5108924;28;20375;-75
2021/05/05 04:01:07;;;;;;;7.13;2.30;;;;;;;;;;5110282;27;20790;-77
2021/05/05 04:03:33;;;;;;;7.60;2.80;;;;;;;;;;5110550;28;20106;-75
2021/05/05 04:06:14;;;;;;;7.38;2.70;;;;;;;;;;5110271;27;20426;-75
2021/05/05 04:08:40;;;;;;;4.43;1.83;;;;;;;;;;5110781;28;20034;-75
2021/05/05 04:11:06;;;;;;;4.72;2.28;;;;;;;;;;5110505;28;20027;-75
2021/05/05 04:14:42;;;;;;;6.10;2.33;;;;;;;;;;5110802;27;20414;-75
2021/05/05 04:17:08;;;;;;;6.13;2.38;;;;;;;;;;5110284;28;20023;-74
2021/05/05 04:19:34;;;;;;;9.38;3.42;;;;;;;;;;5109971;28;20016;-75
2021/05/05 04:24:12;;;;;;;9.45;3.58;;;;;;;;;;5110314;27;20373;-76
2021/05/05 04:28:24;;;;;;;3.00;1.70;;;;;;;;;;5110746;27;20388;-76
2021/05/05 04:31:31;;;;;;;8.32;2.10;;;;;;;;;;5110613;27;20434;-75
2021/05/05 04:33:57;;;;;;;5.90;2.15;;;;;;;;;;5110013;28;20028;-75
2021/05/05 04:36:23;;;;;;;3.63;1.50;;;;;;;;;;5108924;28;20031;-77
2021/05/05 04:38:50;;;;;;;3.13;1.40;;;;;;;;;;5110300;28;20058;-75
2021/05/05 04:41:16;;;;;;;5.07;1.88;;;;;;;;;;5108317;28;20118;-76
2021/05/05 04:43:42;;;;;;;6.85;2.45;;;;;;;;;;5110260;28;20052;-75
2021/05/05 04:46:08;;;;;;;5.25;2.38;;;;;;;;;;5110152;28;20122;-75
2021/05/05 04:48:34;;;;;;;8.15;2.55;;;;;;;;;;5110044;28;20020;-75
2021/05/05 04:51:01;;;;;;;6.18;2.10;;;;;;;;;;5110046;28;20075;-74
2021/05/05 04:53:27;;;;;;;11.32;2.63;;;;;;;;;;5110113;28;20064;-75
2021/05/05 04:55:53;;;;;;;3.97;1.58;;;;;;;;;;5109620;28;20028;-75
2021/05/05 04:58:20;;;;;;;5.13;2.38;;;;;;;;;;5110075;28;20043;-75
2021/05/05 05:01:41;;;;;;;7.38;2.58;;;;;;;;;;5106066;27;20884;-72
2021/05/05 05:04:07;;;;;;;5.72;2.38;;;;;;;;;;5110269;28;20028;-72
2021/05/05 05:06:33;;;;;;;7.43;3.13;;;;;;;;;;5109782;28;20508;-71
2021/05/05 05:11:10;;;;;;;9.55;3.10;;;;;;;;;;5108534;27;20416;-70
2021/05/05 05:13:37;;;;;;;6.30;2.40;;;;;;;;;;5108065;28;20024;-70
2021/05/05 05:16:04;;;;;;;5.25;2.38;;;;;;;;;;5112668;28;20059;-70
2021/05/05 05:18:31;;;;;;;5.13;2.00;;;;;;;;;;5106195;28;20020;-71
2021/05/05 05:21:06;;;;;;;7.28;1.95;;;;;;;;;;5065501;28;20803;-71
2021/05/05 05:23:34;;;;;;;6.07;1.80;;;;;;;;;;5060671;28;20052;-71
2021/05/05 05:28:07;;;;;;;5.20;1.50;;;;;;;;;;5069706;28;20421;-72
2021/05/05 05:30:33;;;;;;;6.50;1.58;;;;;;;;;;5066124;28;20533;-72
2021/05/05 05:37:52;;;;;;;7.03;2.42;;;;;;;;;;5107313;27;20373;-70
2021/05/05 05:40:18;;;;;;;7.85;2.38;;;;;;;;;;5090356;28;20074;-71
2021/05/05 05:42:47;;;;;;;5.38;1.85;;;;;;;;;;5106317;28;20400;-73
2021/05/05 05:45:15;;;;;;;7.10;2.40;;;;;;;;;;5086086;28;20418;-71
2021/05/05 05:47:44;;;;;;;12.65;3.58;;;;;;;;;;5105359;28;20111;-71
2021/05/05 05:50:15;;;;;;;7.00;2.75;;;;;;;;;;5084837;28;20032;-72
2021/05/05 05:52:41;;;;;;;7.03;2.80;;;;;;;;;;5108625;28;20480;-71
2021/05/05 05:56:54;;;;;;;6.47;2.22;;;;;;;;;;5059271;28;20471;-69
2021/05/05 05:59:20;;;;;;;7.57;2.53;;;;;;;;;;5069617;28;20033;-71
2021/05/05 06:01:46;;;;;;;5.75;1.92;;;;;;;;;;5069863;28;20024;-71
2021/05/05 06:04:12;;;;;;;4.72;2.25;;;;;;;;;;5069450;28;20029;-71
2021/05/05 06:06:38;;;;;;;4.80;1.73;;;;;;;;;;5066142;28;20025;-70
2021/05/05 06:09:05;;;;;;;7.57;2.38;;;;;;;;;;5067769;28;20040;-74
2021/05/05 06:14:19;;;;;;;8.13;2.40;;;;;;;;;;5109031;27;20430;-72
2021/05/05 06:18:32;;;;;;;3.65;1.70;;;;;;;;;;5110127;27;20385;-76
2021/05/05 06:20:58;;;;;;;7.63;1.65;;;;;;;;;;5109937;28;20036;-75
2021/05/05 06:23:24;;;;;;;4.47;1.90;;;;;;;;;;5108475;28;20226;-74
2021/05/05 06:25:51;;;;;;;3.65;1.73;;;;;;;;;;5106613;28;20074;-75
2021/05/05 06:29:18;;;;;;;6.38;2.05;;;;;;;;;;5068186;28;20388;-73
2021/05/05 06:31:44;;;;;;;5.57;2.13;;;;;;;;;;5068166;28;20120;-74
2021/05/05 06:34:10;;;;;;;9.07;1.88;;;;;;;;;;5067524;28;20031;-73
2021/05/05 06:36:37;;;;;;;5.80;2.22;;;;;;;;;;5066799;28;20086;-73
2021/05/05 06:39:08;;;;;;;4.43;2.22;;;;;;;;;;5066070;28;20122;-76
2021/05/05 06:41:35;;;;;;;11.35;5.63;;;;;;;;;;5066369;28;20384;-76
2021/05/05 06:46:02;;;;;;;7.30;2.03;;;;;;;;;;5109821;27;20904;-74
2021/05/05 06:48:29;;;;;;;9.50;2.20;;;;;;;;;;5109525;28;20024;-76
2021/05/05 06:50:55;;;;;;;6.15;1.48;;;;;;;;;;5108964;28;20027;-76
2021/05/05 06:53:21;;;;;;;5.57;1.55;;;;;;;;;;5109511;28;20468;-76
2021/05/05 06:55:47;;;;;;;4.95;1.92;;;;;;;;;;5109569;28;20024;-76
2021/05/05 06:58:14;;;;;;;3.92;1.63;;;;;;;;;;5108418;28;20459;-75
2021/05/05 07:00:40;;;;;;;7.32;2.10;;;;;;;;;;5109647;28;20515;-76
2021/05/05 07:03:07;;;;;;;3.33;1.42;;;;;;;;;;5107820;28;20027;-74
2021/05/05 07:05:33;;;;;;;5.43;1.77;;;;;;;;;;5109158;28;20059;-75
2021/05/05 07:11:27;;;;;;;4.47;1.40;;;;;;;;;;5110100;27;20365;-74
2021/05/05 07:13:53;;;;;;;3.58;1.60;;;;;;;;;;5107388;28;20483;-74
2021/05/05 07:16:20;;;;;;;6.85;2.05;;;;;;;;;;5109200;28;20028;-76
2021/05/05 07:18:47;;;;;;;8.35;2.00;;;;;;;;;;5105166;28;20032;-75
2021/05/05 07:21:14;;;;;;;4.95;1.30;;;;;;;;;;5106901;28;20028;-72
2021/05/05 07:24:36;;;;;;;6.63;1.98;;;;;;;;;;5104618;27;20397;-72
2021/05/05 07:28:38;;;;;;;5.72;1.65;;;;;;;;;;5105981;27;21021;-71
2021/05/05 07:31:05;;;;;;;4.30;1.92;;;;;;;;;;5107838;28;20031;-72
2021/05/05 07:34:02;;;;;;;6.00;1.63;;;;;;;;;;5068438;28;21008;-72
2021/05/05 07:38:34;;;;;;;6.05;1.90;;;;;;;;;;5170636;27;20139;-71
2021/05/05 07:48:52;;;;;;;2.55;1.65;;;;;;;;;;5129451;28;20387;-71
2021/05/05 07:51:19;;;;;;;4.68;1.80;;;;;;;;;;5110854;28;20595;-71
2021/05/05 07:53:45;;;;;;;4.53;1.95;;;;;;;;;;5110590;28;20384;-72
2021/05/05 07:56:12;;;;;;;5.07;1.42;;;;;;;;;;5110393;28;20034;-72
2021/05/05 07:58:40;;;;;;;6.25;1.60;;;;;;;;;;5129141;28;20051;-73
2021/05/05 08:01:08;;;;;;;4.95;1.45;;;;;;;;;;5128892;28;20020;-72
2021/05/05 08:03:34;;;;;;;7.38;1.70;;;;;;;;;;5127634;28;20024;-71
2021/05/05 08:06:33;;;;;;;5.35;2.80;;;;;;;;;;5127869;27;20356;-73
2021/05/05 08:08:59;;;;;;;7.50;3.10;;;;;;;;;;5107942;28;20039;-77
2021/05/05 08:11:26;;;;;;;5.25;1.75;;;;;;;;;;5090395;28;20020;-71
2021/05/05 08:13:53;;;;;;;5.00;1.63;;;;;;;;;;5108561;28;20020;-71
2021/05/05 08:16:19;;;;;;;4.68;1.52;;;;;;;;;;5096620;28;20124;-70
2021/05/05 08:18:46;;;;;;;2.22;1.33;;;;;;;;;;5065007;28;20872;-72
2021/05/05 08:21:13;;;;;;;12.23;1.85;;;;;;;;;;5088091;28;20028;-71
2021/05/05 08:23:39;;;;;;;10.07;2.35;;;;;;;;;;5068703;28;20036;-73
2021/05/05 08:26:06;;;;;;;6.50;2.70;;;;;;;;;;5066710;28;20595;-74
2021/05/05 08:28:34;;;;;;;8.45;3.30;;;;;;;;;;5087384;28;20021;-76
2021/05/05 08:31:00;;;;;;;4.15;1.55;;;;;;;;;;5089150;28;20073;-74
2021/05/05 08:33:26;;;;;;;4.28;1.52;;;;;;;;;;5088617;28;20020;-74
2021/05/05 08:35:53;;;;;;;10.43;1.77;;;;;;;;;;5088431;28;20035;-72
2021/05/05 08:38:19;;;;;;;3.65;2.10;;;;;;;;;;5088054;28;20029;-76
2021/05/05 08:40:45;;;;;;;5.07;2.08;;;;;;;;;;5087434;28;20028;-74
2021/05/05 08:43:12;;;;;;;5.07;2.67;;;;;;;;;;5069507;28;20070;-74
2021/05/05 08:45:40;;;;;;;5.38;1.80;;;;;;;;;;5085142;28;20028;-76
2021/05/05 08:48:08;;;;;;;8.18;1.85;;;;;;;;;;5084877;28;20065;-73
2021/05/05 08:50:36;;;;;;;3.83;1.20;;;;;;;;;;5085269;28;20024;-72
2021/05/05 08:53:02;;;;;;;6.82;1.58;;;;;;;;;;5085529;28;20487;-74
2021/05/05 08:55:29;;;;;;;5.05;1.80;;;;;;;;;;5085454;28;20034;-76
2021/05/05 08:57:56;;;;;;;4.80;1.80;;;;;;;;;;5085730;28;20583;-74
2021/05/05 09:00:26;;;;;;;3.15;1.30;;;;;;;;;;5086474;28;20031;-74
2021/05/05 09:02:53;;;;;;;4.93;1.58;;;;;;;;;;5087044;28;20042;-71
2021/05/05 09:05:19;;;;;;;4.40;1.70;;;;;;;;;;5073334;28;20122;-72
2021/05/05 09:07:45;;;;;;;2.88;1.33;;;;;;;;;;5066176;28;20028;-73
2021/05/05 09:10:13;;;;;;;3.60;1.35;;;;;;;;;;5063815;28;20029;-72
2021/05/05 09:12:43;;;;;;;3.95;1.25;;;;;;;;;;5066909;28;20025;-73
2021/05/05 09:15:19;;;;;;;5.43;1.35;;;;;;;;;;5067561;28;20050;-72
2021/05/05 09:17:48;;;;;;;4.78;1.73;;;;;;;;;;5055081;28;20051;-72
2021/05/05 09:20:14;;;;;;;2.10;1.00;;;;;;;;;;5052717;28;20472;-72
2021/05/05 09:22:42;;;;;;;5.43;1.48;;;;;;;;;;5050061;28;20021;-74
2021/05/05 09:25:10;;;;;;;3.58;1.50;;;;;;;;;;5035747;28;20033;-73
2021/05/05 09:27:37;;;;;;;5.88;1.90;;;;;;;;;;5052401;28;20021;-72
2021/05/05 09:32:17;;;;;;;4.80;2.20;;;;;;;;;;5109151;27;20478;-71
2021/05/05 09:34:43;;;;;;;6.63;1.58;;;;;;;;;;5109275;28;20030;-71
2021/05/05 09:38:10;;;;;;;5.20;1.50;;;;;;;;;;5107770;27;20385;-72
2021/05/05 09:40:37;;;;;;;2.47;1.20;;;;;;;;;;5106417;28;20032;-73
2021/05/05 09:43:16;;;;;;;3.80;1.60;;;;;;;;;;5104943;28;20441;-74
2021/05/05 09:45:43;;;;;;;5.32;1.40;;;;;;;;;;5107476;28;20095;-72
2021/05/05 09:48:09;;;;;;;2.80;1.17;;;;;;;;;;5106584;28;20020;-72
2021/05/05 09:50:46;;;;;;;3.88;1.58;;;;;;;;;;5107240;28;20107;-72
2021/05/05 09:53:16;;;;;;;4.63;1.25;;;;;;;;;;5106198;28;20514;-73
2021/05/05 09:55:46;;;;;;;1.63;0.95;;;;;;;;;;5100584;28;20028;-71
2021/05/05 09:58:23;;;;;;;3.90;1.60;;;;;;;;;;5104622;28;20055;-72
2021/05/05 10:01:05;;;;;;;4.53;1.83;;;;;;;;;;5106379;28;20019;-71
2021/05/05 10:03:37;;;;;;;3.63;1.20;;;;;;;;;;5107509;28;20070;-70
2021/05/05 10:08:08;;;;;;;1.80;1.10;;;;;;;;;;5106833;27;20385;-69
2021/05/05 10:10:38;;;;;;;2.13;1.02;;;;;;;;;;5107558;28;20028;-71
2021/05/05 10:13:05;;;;;;;3.85;1.20;;;;;;;;;;5106087;28;20046;-70
2021/05/05 10:15:33;;;;;;;2.85;0.95;;;;;;;;;;5107365;28;20031;-69
2021/05/05 10:18:00;;;;;;;5.28;1.50;;;;;;;;;;5107843;28;20106;-69
2021/05/05 10:20:27;;;;;;;5.38;1.88;;;;;;;;;;5106843;28;20081;-71
2021/05/05 10:23:57;;;;;;;3.83;1.40;;;;;;;;;;5127316;27;20326;-69
2021/05/05 10:26:25;;;;;;;3.88;1.02;;;;;;;;;;5106873;28;20731;-71
2021/05/05 10:28:51;;;;;;;2.17;0.90;;;;;;;;;;5088868;28;20049;-71
2021/05/05 10:31:27;;;;;;;1.52;0.90;;;;;;;;;;5102188;28;20031;-69
2021/05/05 10:33:57;;;;;;;1.50;0.80;;;;;;;;;;5101332;28;20028;-71
2021/05/05 10:36:33;;;;;;;3.17;1.13;;;;;;;;;;5105397;28;20019;-74
2021/05/05 10:39:00;;;;;;;3.03;1.20;;;;;;;;;;5089342;28;20024;-73
2021/05/05 10:41:27;;;;;;;2.70;1.08;;;;;;;;;;5087340;28;20078;-75
2021/05/05 10:43:56;;;;;;;5.05;1.20;;;;;;;;;;5089367;28;20431;-67
2021/05/05 10:46:31;;;;;;;4.20;1.17;;;;;;;;;;5070056;28;20048;-67
2021/05/05 10:49:06;;;;;;;3.97;1.00;;;;;;;;;;5070281;28;20032;-67
2021/05/05 10:51:59;;;;;;;7.13;1.38;;;;;;;;;;5087767;28;20075;-67
2021/05/05 10:54:45;;;;;;;4.78;1.20;;;;;;;;;;5064522;28;20455;-67
2021/05/05 10:57:12;;;;;;;6.35;1.73;;;;;;;;;;5086436;28;20036;-67
2021/05/05 11:00:44;;;;;;;3.38;0.95;;;;;;;;;;5108575;27;20389;-70
2021/05/05 11:03:11;;;;;;;3.08;0.75;;;;;;;;;;5106544;28;20024;-70
2021/05/05 11:05:38;;;;;;;2.97;0.90;;;;;;;;;;5108597;28;20547;-72
2021/05/05 11:08:25;;;;;;;4.60;1.20;;;;;;;;;;5108294;28;20487;-71
2021/05/05 11:10:52;;;;;;;5.32;1.23;;;;;;;;;;5110101;28;20034;-70
2021/05/05 11:13:24;;;;;;;2.33;1.02;;;;;;;;;;5109177;28;20035;-71
2021/05/05 11:15:54;;;;;;;3.92;1.27;;;;;;;;;;5107675;28;20035;-70
2021/05/05 11:18:39;;;;;;;8.38;1.20;;;;;;;;;;5106791;28;20539;-70
2021/05/05 11:21:06;;;;;;;3.55;0.70;;;;;;;;;;5107854;28;20028;-69
2021/05/05 11:23:36;;;;;;;1.90;0.85;;;;;;;;;;5107499;28;20095;-70
2021/05/05 11:26:19;;;;;;;4.80;1.10;;;;;;;;;;5104826;28;20476;-69
2021/05/05 11:28:56;;;;;;;4.03;1.00;;;;;;;;;;5108252;28;20027;-70
2021/05/05 11:31:42;;;;;;;2.75;1.17;;;;;;;;;;5109041;28;20458;-72
2021/05/05 11:34:08;;;;;;;2.55;1.00;;;;;;;;;;5108588;28;20410;-71
2021/05/05 11:36:34;;;;;;;1.95;1.05;;;;;;;;;;5107939;28;20023;-71
2021/05/05 11:39:01;;;;;;;5.95;1.35;;;;;;;;;;5109136;28;20024;-72
2021/05/05 11:41:29;;;;;;;3.95;1.13;;;;;;;;;;5107450;28;20027;-72
2021/05/05 11:43:56;;;;;;;2.20;0.75;;;;;;;;;;5105727;28;20325;-71
2021/05/05 11:46:23;;;;;;;2.75;1.02;;;;;;;;;;5106961;28;20028;-73
2021/05/05 11:48:49;;;;;;;4.40;1.25;;;;;;;;;;5107737;28;20031;-70
2021/05/05 11:51:26;;;;;;;3.20;0.98;;;;;;;;;;5107830;28;20458;-72
2021/05/05 11:53:53;;;;;;;1.75;1.00;;;;;;;;;;5107832;28;20031;-71
2021/05/05 11:56:24;;;;;;;3.05;1.10;;;;;;;;;;5108838;28;20108;-71
2021/05/05 11:58:57;;;;;;;4.05;0.80;;;;;;;;;;5108353;28;20399;-72
2021/05/05 12:01:31;;;;;;;2.95;1.17;;;;;;;;;;5108624;28;20066;-71
2021/05/05 12:04:16;;;;;;;4.05;1.27;;;;;;;;;;5107193;28;20118;-71
2021/05/05 12:06:49;;;;;;;5.53;1.30;;;;;;;;;;5109186;28;20012;-71
2021/05/05 12:09:22;;;;;;;3.67;0.93;;;;;;;;;;5108817;28;20027;-73
2021/05/05 12:11:48;;;;;;;4.68;0.95;;;;;;;;;;5094296;28;20062;-71
2021/05/05 12:14:27;;;;;;;3.35;1.10;;;;;;;;;;5093918;28;20438;-71
2021/05/05 12:16:56;;;;;;;0.93;0.60;;;;;;;;;;5094657;28;20050;-72
2021/05/05 12:19:24;;;;;;;3.45;1.10;;;;;;;;;;5094666;28;20036;-72
2021/05/05 12:21:50;;;;;;;3.42;1.73;;;;;;;;;;5095066;28;20020;-71
2021/05/05 12:24:16;;;;;;;3.13;1.30;;;;;;;;;;5094247;28;20055;-72
2021/05/05 12:26:43;;;;;;;3.65;1.10;;;;;;;;;;5094083;28;20065;-72
2021/05/05 12:29:10;;;;;;;4.43;0.95;;;;;;;;;;5095472;28;20028;-72
2021/05/05 12:31:37;;;;;;;3.63;1.20;;;;;;;;;;5095500;28;20020;-74
2021/05/05 12:34:05;;;;;;;2.20;1.15;;;;;;;;;;5093412;28;20485;-72
2021/05/05 12:36:33;;;;;;;3.42;1.15;;;;;;;;;;5093997;28;20023;-73
2021/05/05 12:39:04;;;;;;;3.88;1.27;;;;;;;;;;5092881;28;20024;-72
2021/05/05 12:41:41;;;;;;;2.40;0.90;;;;;;;;;;5094781;28;20028;-72
2021/05/05 12:44:08;;;;;;;3.28;1.00;;;;;;;;;;5092739;28;20388;-72
2021/05/05 12:46:54;;;;;;;1.90;0.80;;;;;;;;;;5093870;28;20490;-71
2021/05/05 12:49:25;;;;;;;5.35;1.17;;;;;;;;;;5094151;28;20024;-71
2021/05/05 12:51:51;;;;;;;2.90;1.02;;;;;;;;;;5093144;28;20105;-72
2021/05/05 12:54:26;;;;;;;7.38;1.88;;;;;;;;;;5093008;28;20101;-72
2021/05/05 12:56:53;;;;;;;5.70;1.40;;;;;;;;;;5094983;28;20086;-72
2021/05/05 12:59:21;;;;;;;4.47;1.42;;;;;;;;;;5094412;28;20044;-72
2021/05/05 13:01:50;;;;;;;3.70;1.77;;;;;;;;;;5094027;28;20024;-72
2021/05/05 13:04:17;;;;;;;2.38;0.88;;;;;;;;;;5094349;28;20433;-72
2021/05/05 13:06:45;;;;;;;3.65;0.75;;;;;;;;;;5094534;28;20020;-72
2021/05/05 13:09:18;;;;;;;2.70;0.93;;;;;;;;;;5094280;28;20050;-72
2021/05/05 13:11:48;;;;;;;2.47;0.95;;;;;;;;;;5094495;28;20020;-73
2021/05/05 13:14:22;;;;;;;4.05;1.40;;;;;;;;;;5093984;28;20031;-72
2021/05/05 13:30:51;;;;;;;3.13;1.10;;;;;;;;;;5093842;28;20035;-72
2021/05/05 13:33:21;;;;;;;1.73;0.90;;;;;;;;;;5093886;28;20024;-72
2021/05/05 13:35:48;;;;;;;5.05;1.60;;;;;;;;;;5093521;28;20084;-71
2021/05/05 13:38:16;;;;;;;2.83;1.10;;;;;;;;;;5093682;28;20467;-71
2021/05/05 13:40:42;;;;;;;7.40;1.30;;;;;;;;;;5092438;28;20103;-72
2021/05/05 13:43:18;;;;;;;2.25;1.30;;;;;;;;;;5093274;28;20486;-72
2021/05/05 13:45:49;;;;;;;2.83;1.08;;;;;;;;;;5093690;28;20024;-71
2021/05/05 13:48:28;;;;;;;3.13;1.30;;;;;;;;;;5092372;28;20024;-71
2021/05/05 13:50:56;;;;;;;4.22;1.75;;;;;;;;;;5091931;28;20032;-72
2021/05/05 13:53:22;;;;;;;3.15;1.15;;;;;;;;;;5092376;28;20022;-72
2021/05/05 13:55:49;;;;;;;5.90;1.20;;;;;;;;;;5093600;28;20028;-72
2021/05/05 13:58:15;;;;;;;3.25;0.88;;;;;;;;;;5092879;28;20503;-72
2021/05/05 14:00:41;;;;;;;8.07;1.15;;;;;;;;;;5093440;28;20069;-72
2021/05/05 14:03:07;;;;;;;2.60;0.90;;;;;;;;;;5093324;28;20411;-71
2021/05/05 14:05:38;;;;;;;2.78;1.08;;;;;;;;;;5091660;28;20020;-72
2021/05/05 14:08:04;;;;;;;4.00;1.20;;;;;;;;;;5093483;28;20381;-71
2021/05/05 14:10:30;;;;;;;4.18;1.30;;;;;;;;;;5093009;28;20450;-71
2021/05/05 14:12:57;;;;;;;2.90;1.20;;;;;;;;;;5093199;28;20028;-71
2021/05/05 14:15:23;;;;;;;7.55;1.50;;;;;;;;;;5093111;28;20044;-72
2021/05/05 14:17:50;;;;;;;5.60;2.13;;;;;;;;;;5091423;28;20032;-72
2021/05/05 14:20:16;;;;;;;5.43;1.45;;;;;;;;;;5092836;28;20043;-72
2021/05/05 14:22:43;;;;;;;6.53;1.20;;;;;;;;;;5092944;28;20055;-72
2021/05/05 14:25:09;;;;;;;3.10;1.10;;;;;;;;;;5092632;28;20220;-72
2021/05/05 14:27:37;;;;;;;7.13;1.80;;;;;;;;;;5093095;28;20020;-72
2021/05/05 14:30:07;;;;;;;10.40;2.63;;;;;;;;;;5093028;28;20024;-72
2021/05/05 14:32:33;;;;;;;8.05;1.60;;;;;;;;;;5092603;28;20032;-72
2021/05/05 14:35:01;;;;;;;4.15;1.08;;;;;;;;;;5091272;28;20031;-72
2021/05/05 14:37:27;;;;;;;5.25;1.33;;;;;;;;;;5092855;28;20125;-73
2021/05/05 14:39:56;;;;;;;5.30;1.42;;;;;;;;;;5092327;28;20488;-73
2021/05/05 14:42:26;;;;;;;4.00;1.00;;;;;;;;;;5091530;28;20020;-72
2021/05/05 14:48:06;;;;;;;6.43;1.15;;;;;;;;;;5072470;28;20085;-72
2021/05/05 14:50:34;;;;;;;3.80;1.05;;;;;;;;;;5091785;28;20027;-73
2021/05/05 14:53:00;;;;;;;13.60;1.65;;;;;;;;;;5092781;28;20016;-72
2021/05/05 14:55:27;;;;;;;7.38;1.75;;;;;;;;;;5091321;28;20277;-72
2021/05/05 14:58:07;;;;;;;5.80;1.60;;;;;;;;;;5091059;28;20441;-72
2021/05/05 15:00:34;;;;;;;3.47;1.00;;;;;;;;;;5092207;28;20044;-72
2021/05/05 15:03:02;;;;;;;5.95;1.30;;;;;;;;;;5091193;28;20111;-72
2021/05/05 15:05:28;;;;;;;4.72;1.10;;;;;;;;;;5091148;28;20028;-72
2021/05/05 15:07:56;;;;;;;2.80;0.93;;;;;;;;;;5092200;28;20032;-72
2021/05/05 15:36:53;;;;;;;5.85;1.75;;;;;;;;;;5091614;28;20016;-72
2021/05/05 15:39:27;;;;;;;5.60;1.40;;;;;;;;;;5092039;28;20036;-72
2021/05/05 15:41:56;;;;;;;11.20;1.45;;;;;;;;;;5091775;28;20027;-73
2021/05/05 15:44:38;;;;;;;3.97;1.10;;;;;;;;;;5090857;28;20030;-72
2021/05/05 15:49:36;;;;;;;;;;;;;;;;;;5096075;28;20032;-72
2021/05/05 15:52:04;;;;;;;3.13;1.20;;;;;;;;;;5095935;28;19904;-72
2021/05/05 15:54:30;;;;;;;3.88;1.10;;;;;;;;;;5096144;28;20445;-72
2021/05/05 15:57:00;;;;;;;4.15;1.05;;;;;;;;;;5095336;28;20504;-72
2021/05/05 16:17:00;;;;;;;15.52;1.92;;;;;;;;;;5109711;28;20098;-71
2021/05/05 16:19:38;;;;;;;1.83;0.70;;;;;;;;;;5110063;28;20023;-72
2021/05/05 16:22:15;;;;;;;5.82;1.70;;;;;;;;;;5109935;28;20471;-71
2021/05/05 16:25:08;;;;;;;6.00;1.30;;;;;;;;;;5109686;28;20133;-71
2021/05/05 16:49:41;;;;;;;7.43;1.27;;;;;;;;;;5110501;28;20185;-71
2021/05/05 17:08:04;;;;;;;4.57;1.35;;;;;;;;;;5109822;28;20027;-70
2021/05/05 17:10:31;;;;;;;8.35;1.42;;;;;;;;;;5110214;28;20020;-70
2021/05/05 17:13:45;;;;;;;4.95;1.38;;;;;;;;;;5109728;27;20434;-71
2021/05/05 17:16:11;;;;;;;6.38;1.10;;;;;;;;;;5110015;28;20032;-71
2021/05/05 17:18:46;;;;;;;7.43;1.60;;;;;;;;;;5109807;28;20505;-71
2021/05/05 17:21:19;;;;;;;12.50;1.85;;;;;;;;;;5109823;28;20057;-71
2021/05/05 17:23:53;;;;;;;15.02;2.00;;;;;;;;;;5110185;28;20070;-71
2021/05/05 17:29:13;;;;;;;5.07;1.60;;;;;;;;;;5109883;28;20031;-72
2021/05/05 17:58:36;;;;;;;1.55;0.80;;;;;;;;;;5109641;28;20506;-70
2021/05/05 18:11:48;;;;;;;8.10;1.80;;;;;;;;;;5109391;28;20039;-70
2021/05/05 18:14:31;;;;;;;;;;;;;;;;;;5110075;28;20008;-70
2021/05/05 18:20:05;;;;;;;5.13;2.05;;;;;;;;;;5086999;28;20134;-71
2021/05/05 18:27:35;;;;;;;5.38;1.52;;;;;;;;;;5109595;28;20023;-72
2021/05/05 18:30:02;;;;;;;8.30;1.58;;;;;;;;;;5109620;28;20089;-72
2021/05/05 18:32:29;;;;;;;3.25;1.48;;;;;;;;;;5109051;28;20031;-71
2021/05/05 18:34:56;;;;;;;5.20;1.60;;;;;;;;;;5109420;28;20043;-71
2021/05/05 18:37:22;;;;;;;5.20;1.95;;;;;;;;;;5108958;28;20123;-71
2021/05/05 18:39:52;;;;;;;5.13;2.03;;;;;;;;;;5108816;28;20030;-72
2021/05/05 19:21:02;;;;;;;7.60;1.20;;;;;;;;;;5094905;28;20032;-71
2021/05/05 19:50:47;;;;;;;4.65;1.40;;;;;;;;;;5110249;28;20034;-71
2021/05/05 19:56:11;;;;;;;3.28;1.38;;;;;;;;;;5109890;28;20024;-72
2021/05/05 20:01:12;;;;;;;2.90;1.42;;;;;;;;;;5110432;27;20377;-72
2021/05/05 20:24:11;;;;;;;7.47;2.22;;;;;;;;;;5109892;27;20442;-71
2021/05/05 21:06:41;;;;;;;6.85;1.52;;;;;;;;;;5109991;28;20503;-71
2021/05/05 21:18:03;;;;;;;3.63;1.42;;;;;;;;;;5110079;28;20026;-71
2021/05/05 22:52:41;;;;;;;1.35;1.08;;;;;;;;;;5110443;28;20593;-72
2021/05/05 23:26:39;;;;;;;2.65;1.30;;;;;;;;;;5110111;28;20036;-71
2021/05/05 23:34:18;;;;;;;5.55;1.63;;;;;;;;;;5110374;28;20380;-71
